Архив погоды в Павельце

Метеограмма Павелец
Вторник, 25 Июня
Время местн. Темп Ветер Видим Явления Облачность нижн/средн/верх Атм. давл. Влжн Точка росы ВНГО R Сост. почвы Tg s
Напр Скр Прв ур.ст ур.м изм
06:00 +14.6° С,С-З 1 - 50 км - переменная облачность 751 770 +1.1 64% +7.8° более 2.5 км - Влажная (без луж) - -
03:00 +12.1° С 1 - 50 км - ясно 750 769 +0.5 77% +8.1° более 2.5 км - - - -
00:00 +17.1° С 2 - 50 км - ясно 749 768 +0.8 54% +7.7° более 2.5 км - - - -
Понедельник, 24 Июня
Время местн. Темп Ветер Видим Явления Облачность нижн/средн/верх Атм. давл. Влжн Точка росы ВНГО R Сост. почвы Tg s
Напр Скр Прв ур.ст ур.м изм
21:00 +17.7° штиль 0 - 50 км - переменная облачность 748 767 +0.8 65% +11.1° более 2.5 км - - - -
18:00 +23.9° С 3 - 50 км - переменная облачность 748 766 -0.2 37% +8.5° 1 км - - - -
15:00 +23.8° С 4 - 50 км - переменная облачность 748 766 0 43% +10.5° 1 км - - - -
12:00 +21° С 4 - 50 км - переменная облачность 748 766 +0.2 60% +13° 1 км - - - -
09:00 +16° С 2 - 50 км - облачно 748 766 +0.7 78% +12.2° 1 км - - - -
06:00 +15.1° С 3 - 50 км - преимущественно облачно 747 766 +0.5 82% +12.1° 1 км - Влажная (без луж) - -
03:00 +16.1° С 3 - 50 км небо без изменений {гроза, ливневые осадки} облачно 747 765 -1.3 86% +13.7° 1 км - - - -
00:00 +18.6° З 3 - 50 км слабый непрерывный снег {гроза} облачно 748 766 +2.4 82% +15.4° 1 км - - - -
Воскресенье, 23 Июня
Время местн. Темп Ветер Видим Явления Облачность нижн/средн/верх Атм. давл. Влжн Точка росы ВНГО R Сост. почвы Tg s
Напр Скр Прв ур.ст ур.м изм
21:00 +24.4° С 2 - 50 км небо без изменений {гроза} облачно 745 763 +0.1 60% +16.1° 1 км - - - -
18:00 +27.1° С 2 - 50 км гроза без осадков облачно 745 763 -0.3 51% +16.1° 1 км - - - -
15:00 +31.7° З,С-З 2 - 50 км - облачно 746 763 -0.4 34% +13.8° 1 км - - - -
12:00 +30.7° З 1 - 50 км - облачно 746 764 -0.2 39% +15° - - - - -
09:00 +26.3° З,С-З 1 - 50 км - облачно с прояснениями 746 764 +0.4 52% +15.6° 1 км - - - -
06:00 +20° Ю 1 - 50 км - переменная облачность 746 764 +0.4 72% +14.8° 1 км - Сухая (без трещин) - -
03:00 +18.1° Ю 2 - 50 км - переменная облачность 745 764 +0.2 76% +13.8° - - - - -
00:00 +19.6° Ю 2 - 50 км - переменная облачность 745 763 +0.4 74% +14.8° более 2.5 км - - - -
Суббота, 22 Июня
Время местн. Темп Ветер Видим Явления Облачность нижн/средн/верх Атм. давл. Влжн Точка росы ВНГО R Сост. почвы Tg s
Напр Скр Прв ур.ст ур.м изм
21:00 +21.9° Ю,Ю-З 1 - 50 км - переменная облачность 745 763 -0.2 60% +13.8° более 2.5 км - - - -
18:00 +30.1° Ю,Ю-З 4 - 50 км - переменная облачность 745 763 -0.8 27% +9.1° 1 км - - - -
15:00 +31.1° Ю 4 - 50 км - переменная облачность 746 763 -0.4 24% +8.4° 1 км - - - -
12:00 +30.9° Ю-З 3 - 50 км - облачно с прояснениями 746 764 0 27% +9.6° 1 км - - - -
09:00 +26.7° Ю 4 - 50 км - переменная облачность 746 764 +0.1 46% +14.1° 1 км - - - -
06:00 +18.2° Ю 2 - 50 км - переменная облачность 746 764 +0.2 73% +13.2° более 2.5 км - Сухая (без трещин) - -
03:00 +16.2° Ю,Ю-В 1 - 50 км - ясно 746 764 +0.3 78% +12.4° более 2.5 км - - - -